Dades meteomassalio
Diari Summary for Febrer 18, 2018 Units:  Both    English   Metric
« Previous Day
Next Day »
Diari Semanal Mensual Anual Personalitzat
  Maxima: Minima: Mijana:
Temperatura: TemperatureC °F /  -17.8 °C 3.9 °F /  -15.6 °C 8.8 °F /  -12.9 °C
Rosada: DewpointC °F /  -17.8 °C 0.2 °F /  -17.7 °C 3.1 °F /  -16.1 °C
Humitat: Humidity % 52 % 68 %
Velocitat del vent: WindSpeedKMH mph /  0 km/h - 21.2 mph /  34.1 km/h
Racha vent: WindSpeedGustKMH mph /  0 km/h - -
Vent:- - WNW
Pressio: PressurehPa in /  0 hPa 1022.6 in /  34625.2 hPa -
Pluja: 0.0 in /  0 mm    
Historical Graphs
 
 
Tabular Data for Febrer 18, 2018
Time Temperature Dew Point Pressure Wind Wind Speed Wind Gust Humidity Rainfall Rate (Hourly) solar Conditions
TemperatureC °F /  -17.8 °C DewpointC °F /  -17.8 °C PressurehPa in /  0 hPa Calm     Humidity % HourlyPrecipMM in /  0 mm SolarRadiationWatts/m^2 W/m2 Conditions
00:00 7.2 °F /  -13.8 °C 2.3 °F /  -16.5 °C 1027.3 in /  34784.4 hPa West 18.5 mph /  29.8 km/h 18.5 mph /  29.8 km/h 71 % 0.0 in /  0 mm 0.0 W/m2 RA
00:05 7.2 °F /  -13.8 °C 2.3 °F /  -16.5 °C 1027.7 in /  34797.9 hPa West 18.5 mph /  29.8 km/h 18.5 mph /  29.8 km/h 71 % 0.0 in /  0 mm 0.0 W/m2 CLR
00:10 6.7 °F /  -14.1 °C 1.8 °F /  -16.8 °C 1027.3 in /  34784.4 hPa WNW 16.7 mph /  26.9 km/h 16.7 mph /  26.9 km/h 71 % 0.0 in /  0 mm 0.0 W/m2 CLR
00:15 6.7 °F /  -14.1 °C 1.8 °F /  -16.8 °C 1027.3 in /  34784.4 hPa West 16.1 mph /  25.9 km/h 16.1 mph /  25.9 km/h 71 % 0.0 in /  0 mm 0.0 W/m2 CLR
00:20 6.7 °F /  -14.1 °C 1.8 °F /  -16.8 °C 1027.3 in /  34784.4 hPa NW 24.1 mph /  38.8 km/h 24.1 mph /  38.8 km/h 71 % 0.0 in /  0 mm 0.0 W/m2 CLR
00:25 6.7 °F /  -14.1 °C 1.8 °F /  -16.8 °C 1027.3 in /  34784.4 hPa NW 27.8 mph /  44.7 km/h 27.8 mph /  44.7 km/h 71 % 0.0 in /  0 mm 0.0 W/m2 CLR
00:30 6.7 °F /  -14.1 °C 1.8 °F /  -16.8 °C 1027.3 in /  34784.4 hPa WNW 29.6 mph /  47.6 km/h 29.6 mph /  47.6 km/h 71 % 0.0 in /  0 mm 0.0 W/m2 CLR
00:35 6.7 °F /  -14.1 °C 1.8 °F /  -16.8 °C 1027.3 in /  34784.4 hPa NW 22.2 mph /  35.7 km/h 22.2 mph /  35.7 km/h 71 % 0.0 in /  0 mm 0.0 W/m2 CLR
00:40 6.7 °F /  -14.1 °C 1.8 °F /  -16.8 °C 1027.3 in /  34784.4 hPa WNW 22.2 mph /  35.7 km/h 22.2 mph /  35.7 km/h 71 % 0.0 in /  0 mm 0.0 W/m2 CLR
00:45 6.7 °F /  -14.1 °C 1.8 °F /  -16.8 °C 1027.3 in /  34784.4 hPa NW 18.5 mph /  29.8 km/h 18.5 mph /  29.8 km/h 71 % 0.0 in /  0 mm 0.0 W/m2 CLR
00:50 6.7 °F /  -14.1 °C 1.8 °F /  -16.8 °C 1027.3 in /  34784.4 hPa NW 19.3 mph /  31.1 km/h 19.3 mph /  31.1 km/h 71 % 0.0 in /  0 mm 0.0 W/m2 CLR
00:55 6.7 °F /  -14.1 °C 1.8 °F /  -16.8 °C 1027.3 in /  34784.4 hPa WNW 27.8 mph /  44.7 km/h 27.8 mph /  44.7 km/h 71 % 0.0 in /  0 mm 0.0 W/m2 CLR
01:00 6.7 °F /  -14.1 °C 1.8 °F /  -16.8 °C 1027.3 in /  34784.4 hPa NW 20.4 mph /  32.8 km/h 20.4 mph /  32.8 km/h 71 % 0.0 in /  0 mm 0.0 W/m2 CLR
01:05 6.7 °F /  -14.1 °C 1.8 °F /  -16.8 °C 1027.3 in /  34784.4 hPa NW 22.2 mph /  35.7 km/h 22.2 mph /  35.7 km/h 71 % 0.0 in /  0 mm 0.0 W/m2 CLR
01:10 6.7 °F /  -14.1 °C 1.8 °F /  -16.8 °C 1027.3 in /  34784.4 hPa NW 24.1 mph /  38.8 km/h 24.1 mph /  38.8 km/h 71 % 0.0 in /  0 mm 0.0 W/m2 CLR
01:15 6.1 °F /  -14.4 °C 1.1 °F /  -17.2 °C 1027.3 in /  34784.4 hPa WNW 24.1 mph /  38.8 km/h 24.1 mph /  38.8 km/h 70 % 0.0 in /  0 mm 0.0 W/m2 CLR
01:20 6.7 °F /  -14.1 °C 1.6 °F /  -16.9 °C 1027.3 in /  34784.4 hPa WNW 25.9 mph /  41.7 km/h 25.9 mph /  41.7 km/h 70 % 0.0 in /  0 mm 0.0 W/m2 CLR
01:25 6.1 °F /  -14.4 °C 1.1 °F /  -17.2 °C 1027.3 in /  34784.4 hPa WNW 20.9 mph /  33.6 km/h 20.9 mph /  33.6 km/h 70 % 0.0 in /  0 mm 0.0 W/m2 CLR
01:30 6.1 °F /  -14.4 °C 1.1 °F /  -17.2 °C 1027.3 in /  34784.4 hPa West 22.2 mph /  35.7 km/h 22.2 mph /  35.7 km/h 70 % 0.0 in /  0 mm 0.0 W/m2 CLR
01:35 6.1 °F /  -14.4 °C 1.1 °F /  -17.2 °C 1027.3 in /  34784.4 hPa WNW 18.5 mph /  29.8 km/h 18.5 mph /  29.8 km/h 70 % 0.0 in /  0 mm 0.0 W/m2 CLR
01:40 6.1 °F /  -14.4 °C 1.2 °F /  -17.1 °C 1027.3 in /  34784.4 hPa WNW 18.5 mph /  29.8 km/h 18.5 mph /  29.8 km/h 71 % 0.0 in /  0 mm 0.0 W/m2 CLR
01:45 6.1 °F /  -14.4 °C 1.2 °F /  -17.1 °C 1027.3 in /  34784.4 hPa WNW 18.5 mph /  29.8 km/h 18.5 mph /  29.8 km/h 71 % 0.0 in /  0 mm 0.0 W/m2 CLR
01:50 6.1 °F /  -14.4 °C 1.2 °F /  -17.1 °C 1027.3 in /  34784.4 hPa WNW 16.1 mph /  25.9 km/h 16.1 mph /  25.9 km/h 71 % 0.0 in /  0 mm 0.0 W/m2 CLR
01:56 6.1 °F /  -14.4 °C 1.2 °F /  -17.1 °C 1027.3 in /  34784.4 hPa WNW 20.4 mph /  32.8 km/h 20.4 mph /  32.8 km/h 71 % 0.0 in /  0 mm 0.0 W/m2 CLR
02:01 6.1 °F /  -14.4 °C 1.2 °F /  -17.1 °C 1027.3 in /  34784.4 hPa WNW 27.8 mph /  44.7 km/h 27.8 mph /  44.7 km/h 71 % 0.0 in /  0 mm 0.0 W/m2 CLR
02:06 6.1 °F /  -14.4 °C 1.2 °F /  -17.1 °C 1027.0 in /  34774.2 hPa WNW 27.8 mph /  44.7 km/h 27.8 mph /  44.7 km/h 71 % 0.0 in /  0 mm 0.0 W/m2 CLR
02:11 6.1 °F /  -14.4 °C 1.2 °F /  -17.1 °C 1027.0 in /  34774.2 hPa WNW 27.8 mph /  44.7 km/h 27.8 mph /  44.7 km/h 71 % 0.0 in /  0 mm 0.0 W/m2 CLR
02:16 6.1 °F /  -14.4 °C 1.1 °F /  -17.2 °C 1027.0 in /  34774.2 hPa WNW 18.5 mph /  29.8 km/h 18.5 mph /  29.8 km/h 70 % 0.0 in /  0 mm 0.0 W/m2 CLR
02:21 6.1 °F /  -14.4 °C 1.1 °F /  -17.2 °C 1027.0 in /  34774.2 hPa WNW 24.1 mph /  38.8 km/h 24.1 mph /  38.8 km/h 70 % 0.0 in /  0 mm 0.0 W/m2 CLR
02:26 6.1 °F /  -14.4 °C 1.1 °F /  -17.2 °C 1027.0 in /  34774.2 hPa West 13.0 mph /  20.9 km/h 13.0 mph /  20.9 km/h 70 % 0.0 in /  0 mm 0.0 W/m2 CLR
02:31 6.1 °F /  -14.4 °C 1.2 °F /  -17.1 °C 1027.0 in /  34774.2 hPa WNW 20.9 mph /  33.6 km/h 20.9 mph /  33.6 km/h 71 % 0.0 in /  0 mm 0.0 W/m2 CLR
02:36 6.1 °F /  -14.4 °C 1.2 °F /  -17.1 °C 1027.0 in /  34774.2 hPa NW 22.2 mph /  35.7 km/h 22.2 mph /  35.7 km/h 71 % 0.0 in /  0 mm 0.0 W/m2 CLR
02:41 6.1 °F /  -14.4 °C 1.2 °F /  -17.1 °C 1027.0 in /  34774.2 hPa WNW 16.7 mph /  26.9 km/h 16.7 mph /  26.9 km/h 71 % 0.0 in /  0 mm 0.0 W/m2 CLR
02:46 6.1 °F /  -14.4 °C 1.2 °F /  -17.1 °C 1027.0 in /  34774.2 hPa WNW 18.5 mph /  29.8 km/h 18.5 mph /  29.8 km/h 71 % 0.0 in /  0 mm 0.0 W/m2 CLR
02:51 6.1 °F /  -14.4 °C 1.2 °F /  -17.1 °C 1027.0 in /  34774.2 hPa WNW 16.7 mph /  26.9 km/h 16.7 mph /  26.9 km/h 71 % 0.0 in /  0 mm 0.0 W/m2 CLR
02:57 6.1 °F /  -14.4 °C 1.2 °F /  -17.1 °C 1027.0 in /  34774.2 hPa NW 25.9 mph /  41.7 km/h 25.9 mph /  41.7 km/h 71 % 0.0 in /  0 mm 0.0 W/m2 CLR
03:02 6.1 °F /  -14.4 °C 1.1 °F /  -17.2 °C 1027.0 in /  34774.2 hPa West 19.3 mph /  31.1 km/h 19.3 mph /  31.1 km/h 70 % 0.0 in /  0 mm 0.0 W/m2 CLR
03:07 5.6 °F /  -14.7 °C 0.7 °F /  -17.4 °C 1027.0 in /  34774.2 hPa NW 18.5 mph /  29.8 km/h 18.5 mph /  29.8 km/h 71 % 0.0 in /  0 mm 0.0 W/m2 CLR
03:12 5.6 °F /  -14.7 °C 0.5 °F /  -17.5 °C 1026.6 in /  34760.7 hPa WNW 16.7 mph /  26.9 km/h 16.7 mph /  26.9 km/h 70 % 0.0 in /  0 mm 0.0 W/m2 CLR
03:17 5.6 °F /  -14.7 °C 0.7 °F /  -17.4 °C 1026.6 in /  34760.7 hPa WNW 18.5 mph /  29.8 km/h 18.5 mph /  29.8 km/h 71 % 0.0 in /  0 mm 0.0 W/m2 CLR
03:22 5.6 °F /  -14.7 °C 0.7 °F /  -17.4 °C 1026.6 in /  34760.7 hPa West 13.0 mph /  20.9 km/h 13.0 mph /  20.9 km/h 71 % 0.0 in /  0 mm 0.0 W/m2 CLR
03:27 5.6 °F /  -14.7 °C 0.9 °F /  -17.3 °C 1026.6 in /  34760.7 hPa WNW 22.2 mph /  35.7 km/h 22.2 mph /  35.7 km/h 72 % 0.0 in /  0 mm 0.0 W/m2 CLR
03:32 5.6 °F /  -14.7 °C 0.9 °F /  -17.3 °C 1026.6 in /  34760.7 hPa NW 27.8 mph /  44.7 km/h 27.8 mph /  44.7 km/h 72 % 0.0 in /  0 mm 0.0 W/m2 CLR
03:37 5.6 °F /  -14.7 °C 0.9 °F /  -17.3 °C 1026.6 in /  34760.7 hPa West 16.7 mph /  26.9 km/h 16.7 mph /  26.9 km/h 72 % 0.0 in /  0 mm 0.0 W/m2 CLR
03:42 5.6 °F /  -14.7 °C 0.9 °F /  -17.3 °C 1026.6 in /  34760.7 hPa West 18.5 mph /  29.8 km/h 18.5 mph /  29.8 km/h 72 % 0.0 in /  0 mm 0.0 W/m2 CLR
03:47 5.6 °F /  -14.7 °C 0.9 °F /  -17.3 °C 1026.6 in /  34760.7 hPa West 18.5 mph /  29.8 km/h 18.5 mph /  29.8 km/h 72 % 0.0 in /  0 mm 0.0 W/m2 CLR
03:52 5.6 °F /  -14.7 °C 1.1 °F /  -17.2 °C 1026.6 in /  34760.7 hPa WNW 18.5 mph /  29.8 km/h 18.5 mph /  29.8 km/h 73 % 0.0 in /  0 mm 0.0 W/m2 CLR
03:57 5.6 °F /  -14.7 °C 1.1 °F /  -17.2 °C 1026.6 in /  34760.7 hPa WNW 24.1 mph /  38.8 km/h 24.1 mph /  38.8 km/h 73 % 0.0 in /  0 mm 0.0 W/m2 CLR
04:02 5.6 °F /  -14.7 °C 1.1 °F /  -17.2 °C 1026.3 in /  34750.5 hPa WNW 24.1 mph /  38.8 km/h 24.1 mph /  38.8 km/h 73 % 0.0 in /  0 mm 0.0 W/m2 CLR
04:07 5.6 °F /  -14.7 °C 1.1 °F /  -17.2 °C 1026.3 in /  34750.5 hPa WNW 24.1 mph /  38.8 km/h 24.1 mph /  38.8 km/h 73 % 0.0 in /  0 mm 0.0 W/m2 CLR
04:12 5.6 °F /  -14.7 °C 1.3 °F /  -17.1 °C 1026.3 in /  34750.5 hPa NW 19.3 mph /  31.1 km/h 19.3 mph /  31.1 km/h 74 % 0.0 in /  0 mm 0.0 W/m2 CLR
04:17 5.6 °F /  -14.7 °C 1.1 °F /  -17.2 °C 1026.3 in /  34750.5 hPa WNW 22.2 mph /  35.7 km/h 22.2 mph /  35.7 km/h 73 % 0.0 in /  0 mm 0.0 W/m2 CLR
04:22 5.6 °F /  -14.7 °C 1.1 °F /  -17.2 °C 1026.3 in /  34750.5 hPa WNW 27.8 mph /  44.7 km/h 27.8 mph /  44.7 km/h 73 % 0.0 in /  0 mm 0.0 W/m2 CLR
04:27 5.6 °F /  -14.7 °C 1.1 °F /  -17.2 °C 1026.3 in /  34750.5 hPa WNW 27.8 mph /  44.7 km/h 27.8 mph /  44.7 km/h 73 % 0.0 in /  0 mm 0.0 W/m2 CLR
04:32 5.6 °F /  -14.7 °C 1.1 °F /  -17.2 °C 1026.3 in /  34750.5 hPa WNW 31.5 mph /  50.7 km/h 31.5 mph /  50.7 km/h 73 % 0.0 in /  0 mm 0.0 W/m2 CLR
04:37 5.6 °F /  -14.7 °C 1.3 °F /  -17.1 °C 1026.3 in /  34750.5 hPa West 18.5 mph /  29.8 km/h 18.5 mph /  29.8 km/h 74 % 0.0 in /  0 mm 0.0 W/m2 CLR
04:42 5.6 °F /  -14.7 °C 1.3 °F /  -17.1 °C 1026.3 in /  34750.5 hPa NW 24.1 mph /  38.8 km/h 24.1 mph /  38.8 km/h 74 % 0.0 in /  0 mm 0.0 W/m2 CLR
04:47 5.6 °F /  -14.7 °C 1.3 °F /  -17.1 °C 1026.3 in /  34750.5 hPa West 18.5 mph /  29.8 km/h 18.5 mph /  29.8 km/h 74 % 0.0 in /  0 mm 0.0 W/m2 CLR
04:52 5.6 °F /  -14.7 °C 1.3 °F /  -17.1 °C 1026.3 in /  34750.5 hPa WNW 24.1 mph /  38.8 km/h 24.1 mph /  38.8 km/h 74 % 0.0 in /  0 mm 0.0 W/m2 CLR
04:57 5.6 °F /  -14.7 °C 1.3 °F /  -17.1 °C 1026.3 in /  34750.5 hPa WNW 20.9 mph /  33.6 km/h 20.9 mph /  33.6 km/h 74 % 0.0 in /  0 mm 0.0 W/m2 CLR
05:02 6.1 °F /  -14.4 °C 1.8 °F /  -16.8 °C 1026.3 in /  34750.5 hPa WNW 18.5 mph /  29.8 km/h 18.5 mph /  29.8 km/h 74 % 0.0 in /  0 mm 0.0 W/m2 CLR
05:07 6.1 °F /  -14.4 °C 1.8 °F /  -16.8 °C 1026.3 in /  34750.5 hPa West 22.5 mph /  36.2 km/h 22.5 mph /  36.2 km/h 74 % 0.0 in /  0 mm 0.0 W/m2 CLR
05:12 6.1 °F /  -14.4 °C 1.8 °F /  -16.8 °C 1026.3 in /  34750.5 hPa WNW 20.4 mph /  32.8 km/h 20.4 mph /  32.8 km/h 74 % 0.0 in /  0 mm 0.0 W/m2 CLR
05:17 6.1 °F /  -14.4 °C 1.8 °F /  -16.8 °C 1026.3 in /  34750.5 hPa WNW 16.7 mph /  26.9 km/h 16.7 mph /  26.9 km/h 74 % 0.0 in /  0 mm 0.0 W/m2 CLR
05:22 6.1 °F /  -14.4 °C 1.8 °F /  -16.8 °C 1026.3 in /  34750.5 hPa WNW 16.7 mph /  26.9 km/h 16.7 mph /  26.9 km/h 74 % 0.0 in /  0 mm 0.0 W/m2 CLR
05:27 6.1 °F /  -14.4 °C 1.8 °F /  -16.8 °C 1026.3 in /  34750.5 hPa West 18.5 mph /  29.8 km/h 18.5 mph /  29.8 km/h 74 % 0.0 in /  0 mm 0.0 W/m2 CLR
05:32 6.1 °F /  -14.4 °C 1.8 °F /  -16.8 °C 1026.3 in /  34750.5 hPa NNW 14.5 mph /  23.3 km/h 14.5 mph /  23.3 km/h 74 % 0.0 in /  0 mm 0.0 W/m2 CLR
05:37 6.1 °F /  -14.4 °C 2.0 °F /  -16.7 °C 1026.3 in /  34750.5 hPa West 24.1 mph /  38.8 km/h 24.1 mph /  38.8 km/h 75 % 0.0 in /  0 mm 0.0 W/m2 CLR
05:42 6.1 °F /  -14.4 °C 2.0 °F /  -16.7 °C 1026.3 in /  34750.5 hPa NW 20.4 mph /  32.8 km/h 20.4 mph /  32.8 km/h 75 % 0.0 in /  0 mm 0.0 W/m2 CLR
05:47 5.6 °F /  -14.7 °C 1.4 °F /  -17 °C 1026.3 in /  34750.5 hPa NW 14.8 mph /  23.8 km/h 14.8 mph /  23.8 km/h 75 % 0.0 in /  0 mm 0.0 W/m2 CLR
05:52 5.6 °F /  -14.7 °C 1.4 °F /  -17 °C 1026.3 in /  34750.5 hPa WNW 18.5 mph /  29.8 km/h 18.5 mph /  29.8 km/h 75 % 0.0 in /  0 mm 0.0 W/m2 CLR
05:57 5.6 °F /  -14.7 °C 1.4 °F /  -17 °C 1026.3 in /  34750.5 hPa WNW 18.5 mph /  29.8 km/h 18.5 mph /  29.8 km/h 75 % 0.0 in /  0 mm 0.0 W/m2 CLR
06:02 5.6 °F /  -14.7 °C 1.7 °F /  -16.8 °C 1026.3 in /  34750.5 hPa NW 25.9 mph /  41.7 km/h 25.9 mph /  41.7 km/h 76 % 0.0 in /  0 mm 0.0 W/m2 CLR
06:07 5.6 °F /  -14.7 °C 1.7 °F /  -16.8 °C 1026.3 in /  34750.5 hPa NW 29.6 mph /  47.6 km/h 29.6 mph /  47.6 km/h 76 % 0.0 in /  0 mm 0.0 W/m2 CLR
06:12 5.6 °F /  -14.7 °C 1.7 °F /  -16.8 °C 1026.3 in /  34750.5 hPa NNW 20.4 mph /  32.8 km/h 20.4 mph /  32.8 km/h 76 % 0.0 in /  0 mm 0.0 W/m2 CLR
06:17 5.6 °F /  -14.7 °C 1.7 °F /  -16.8 °C 1026.3 in /  34750.5 hPa NW 19.3 mph /  31.1 km/h 19.5 mph /  31.4 km/h 76 % 0.0 in /  0 mm 0.0 W/m2 CLR
06:22 5.6 °F /  -14.7 °C 1.7 °F /  -16.8 °C 1026.3 in /  34750.5 hPa WNW 16.7 mph /  26.9 km/h 16.7 mph /  26.9 km/h 76 % 0.0 in /  0 mm 0.0 W/m2 CLR
06:27 5.6 °F /  -14.7 °C 1.7 °F /  -16.8 °C 1026.6 in /  34760.7 hPa West 16.7 mph /  26.9 km/h 16.7 mph /  26.9 km/h 76 % 0.0 in /  0 mm 0.0 W/m2 CLR
06:32 5.6 °F /  -14.7 °C 1.7 °F /  -16.8 °C 1026.6 in /  34760.7 hPa WNW 9.3 mph /  15 km/h 9.3 mph /  15 km/h 76 % 0.0 in /  0 mm 0.0 W/m2 CLR
06:37 5.0 °F /  -15 °C 1.1 °F /  -17.2 °C 1026.3 in /  34750.5 hPa WNW 7.4 mph /  11.9 km/h 7.4 mph /  11.9 km/h 76 % 0.0 in /  0 mm 0.0 W/m2 CLR
06:42 5.0 °F /  -15 °C 1.3 °F /  -17.1 °C 1026.3 in /  34750.5 hPa West 13.0 mph /  20.9 km/h 13.0 mph /  20.9 km/h 77 % 0.0 in /  0 mm 0.0 W/m2 CLR
06:47 4.4 °F /  -15.3 °C 0.8 °F /  -17.3 °C 1026.3 in /  34750.5 hPa WNW 16.7 mph /  26.9 km/h 16.7 mph /  26.9 km/h 77 % 0.0 in /  0 mm 0.0 W/m2 CLR
06:52 4.4 °F /  -15.3 °C 0.8 °F /  -17.3 °C 1026.3 in /  34750.5 hPa WNW 14.8 mph /  23.8 km/h 14.8 mph /  23.8 km/h 77 % 0.0 in /  0 mm 0.0 W/m2 CLR
06:57 4.4 °F /  -15.3 °C 0.8 °F /  -17.3 °C 1026.3 in /  34750.5 hPa West 14.8 mph /  23.8 km/h 14.8 mph /  23.8 km/h 77 % 0.0 in /  0 mm 0.0 W/m2 CLR
07:03 4.4 °F /  -15.3 °C 0.8 °F /  -17.3 °C 1026.3 in /  34750.5 hPa WNW 14.8 mph /  23.8 km/h 14.8 mph /  23.8 km/h 77 % 0.0 in /  0 mm 0.0 W/m2 CLR
07:08 4.4 °F /  -15.3 °C 0.8 °F /  -17.3 °C 1026.3 in /  34750.5 hPa NW 14.8 mph /  23.8 km/h 14.8 mph /  23.8 km/h 77 % 0.0 in /  0 mm 0.0 W/m2 CLR
07:13 4.4 °F /  -15.3 °C 0.8 °F /  -17.3 °C 1026.3 in /  34750.5 hPa WNW 12.9 mph /  20.8 km/h 12.9 mph /  20.8 km/h 77 % 0.0 in /  0 mm 0.0 W/m2 CLR
07:18 5.0 °F /  -15 °C 1.5 °F /  -16.9 °C 1026.3 in /  34750.5 hPa West 16.7 mph /  26.9 km/h 16.7 mph /  26.9 km/h 78 % 0.0 in /  0 mm 0.0 W/m2 CLR
07:23 4.4 °F /  -15.3 °C 0.9 °F /  -17.3 °C 1026.3 in /  34750.5 hPa NW 16.1 mph /  25.9 km/h 16.1 mph /  25.9 km/h 78 % 0.0 in /  0 mm 0.0 W/m2 CLR
07:28 4.4 °F /  -15.3 °C 0.9 °F /  -17.3 °C 1026.6 in /  34760.7 hPa NW 16.7 mph /  26.9 km/h 16.7 mph /  26.9 km/h 78 % 0.0 in /  0 mm 0.0 W/m2 CLR
07:33 4.4 °F /  -15.3 °C 0.8 °F /  -17.3 °C 1026.6 in /  34760.7 hPa NW 16.7 mph /  26.9 km/h 16.7 mph /  26.9 km/h 77 % 0.0 in /  0 mm 0.0 W/m2 CLR
07:38 4.4 °F /  -15.3 °C 0.8 °F /  -17.3 °C 1026.6 in /  34760.7 hPa WNW 16.7 mph /  26.9 km/h 16.7 mph /  26.9 km/h 77 % 0.0 in /  0 mm 0.0 W/m2 CLR
07:43 4.4 °F /  -15.3 °C 0.9 °F /  -17.3 °C 1026.6 in /  34760.7 hPa WNW 18.5 mph /  29.8 km/h 18.5 mph /  29.8 km/h 78 % 0.0 in /  0 mm 0.0 W/m2 OVC
07:48 4.4 °F /  -15.3 °C 0.9 °F /  -17.3 °C 1026.6 in /  34760.7 hPa West 18.5 mph /  29.8 km/h 18.5 mph /  29.8 km/h 78 % 0.0 in /  0 mm 0.0 W/m2 OVC
07:53 4.4 °F /  -15.3 °C 0.9 °F /  -17.3 °C 1026.6 in /  34760.7 hPa WNW 11.1 mph /  17.9 km/h 11.1 mph /  17.9 km/h 78 % 0.0 in /  0 mm 5.0 W/m2 OVC
07:58 4.4 °F /  -15.3 °C 0.9 °F /  -17.3 °C 1026.6 in /  34760.7 hPa WNW 11.1 mph /  17.9 km/h 11.1 mph /  17.9 km/h 78 % 0.0 in /  0 mm 9.0 W/m2 BKN
08:03 4.4 °F /  -15.3 °C 0.9 °F /  -17.3 °C 1026.6 in /  34760.7 hPa NW 18.5 mph /  29.8 km/h 18.5 mph /  29.8 km/h 78 % 0.0 in /  0 mm 11.0 W/m2 BKN
08:08 4.4 °F /  -15.3 °C 0.9 °F /  -17.3 °C 1027.0 in /  34774.2 hPa WNW 14.5 mph /  23.3 km/h 14.5 mph /  23.3 km/h 78 % 0.0 in /  0 mm 14.0 W/m2 BKN
08:13 3.9 °F /  -15.6 °C 0.4 °F /  -17.6 °C 1027.0 in /  34774.2 hPa WNW 5.6 mph /  9 km/h 5.6 mph /  9 km/h 78 % 0.0 in /  0 mm 16.0 W/m2 BKN
08:18 3.9 °F /  -15.6 °C 0.4 °F /  -17.6 °C 1027.0 in /  34774.2 hPa WNW 13.0 mph /  20.9 km/h 13.0 mph /  20.9 km/h 78 % 0.0 in /  0 mm 19.0 W/m2 BKN
08:23 3.9 °F /  -15.6 °C 0.4 °F /  -17.6 °C 1027.0 in /  34774.2 hPa NW 13.0 mph /  20.9 km/h 13.0 mph /  20.9 km/h 78 % 0.0 in /  0 mm 26.0 W/m2 BKN
08:28 3.9 °F /  -15.6 °C 0.2 °F /  -17.7 °C 1027.0 in /  34774.2 hPa WNW 18.5 mph /  29.8 km/h 18.5 mph /  29.8 km/h 77 % 0.0 in /  0 mm 35.0 W/m2 BKN
08:33 4.4 °F /  -15.3 °C 0.8 °F /  -17.3 °C 1027.0 in /  34774.2 hPa West 5.6 mph /  9 km/h 5.6 mph /  9 km/h 77 % 0.0 in /  0 mm 44.0 W/m2 BKN
08:38 5.0 °F /  -15 °C 1.3 °F /  -17.1 °C 1027.0 in /  34774.2 hPa Calm   0.3 mph /  0.5 km/h 77 % 0.0 in /  0 mm 56.0 W/m2 SCT
08:43 5.0 °F /  -15 °C 1.3 °F /  -17.1 °C 1027.0 in /  34774.2 hPa WNW 13.0 mph /  20.9 km/h 13.0 mph /  20.9 km/h 77 % 0.0 in /  0 mm 76.0 W/m2 FEW
08:48 5.0 °F /  -15 °C 1.1 °F /  -17.2 °C 1027.0 in /  34774.2 hPa NW 16.7 mph /  26.9 km/h 16.7 mph /  26.9 km/h 76 % 0.0 in /  0 mm 90.0 W/m2 CLR
08:53 5.6 °F /  -14.7 °C 1.7 °F /  -16.8 °C 1027.0 in /  34774.2 hPa WNW 14.8 mph /  23.8 km/h 14.8 mph /  23.8 km/h 76 % 0.0 in /  0 mm 109.0 W/m2 CLR
08:58 5.6 °F /  -14.7 °C 1.4 °F /  -17 °C 1027.0 in /  34774.2 hPa WNW 20.4 mph /  32.8 km/h 20.4 mph /  32.8 km/h 75 % 0.0 in /  0 mm 125.0 W/m2 CLR
09:03 5.6 °F /  -14.7 °C 1.4 °F /  -17 °C 1027.0 in /  34774.2 hPa WNW 18.5 mph /  29.8 km/h 18.5 mph /  29.8 km/h 75 % 0.0 in /  0 mm 120.0 W/m2 CLR
09:08 6.1 °F /  -14.4 °C 1.8 °F /  -16.8 °C 1027.0 in /  34774.2 hPa WNW 24.1 mph /  38.8 km/h 24.1 mph /  38.8 km/h 74 % 0.0 in /  0 mm 160.0 W/m2 CLR
09:13 6.1 °F /  -14.4 °C 1.8 °F /  -16.8 °C 1027.0 in /  34774.2 hPa NW 22.2 mph /  35.7 km/h 22.2 mph /  35.7 km/h 74 % 0.0 in /  0 mm 134.0 W/m2 CLR
09:18 6.1 °F /  -14.4 °C 1.6 °F /  -16.9 °C 1027.0 in /  34774.2 hPa West 25.9 mph /  41.7 km/h 25.9 mph /  41.7 km/h 73 % 0.0 in /  0 mm 199.0 W/m2 CLR
09:23 6.7 °F /  -14.1 °C 2.2 °F /  -16.6 °C 1027.0 in /  34774.2 hPa NW 22.2 mph /  35.7 km/h 22.2 mph /  35.7 km/h 73 % 0.0 in /  0 mm 214.0 W/m2 CLR
09:28 6.7 °F /  -14.1 °C 2.0 °F /  -16.7 °C 1027.0 in /  34774.2 hPa WNW 18.5 mph /  29.8 km/h 18.5 mph /  29.8 km/h 72 % 0.0 in /  0 mm 232.0 W/m2 CLR
09:33 6.7 °F /  -14.1 °C 2.2 °F /  -16.6 °C 1027.0 in /  34774.2 hPa WNW 22.2 mph /  35.7 km/h 22.2 mph /  35.7 km/h 73 % 0.0 in /  0 mm 248.0 W/m2 CLR
09:38 6.7 °F /  -14.1 °C 2.0 °F /  -16.7 °C 1027.0 in /  34774.2 hPa WNW 20.4 mph /  32.8 km/h 20.4 mph /  32.8 km/h 72 % 0.0 in /  0 mm 267.0 W/m2 CLR
09:43 6.7 °F /  -14.1 °C 2.0 °F /  -16.7 °C 1027.0 in /  34774.2 hPa NW 20.4 mph /  32.8 km/h 20.4 mph /  32.8 km/h 72 % 0.0 in /  0 mm 283.0 W/m2 CLR
09:48 7.2 °F /  -13.8 °C 2.5 °F /  -16.4 °C 1027.3 in /  34784.4 hPa NNW 25.7 mph /  41.4 km/h 25.7 mph /  41.4 km/h 72 % 0.0 in /  0 mm 320.0 W/m2 CLR
09:53 7.2 °F /  -13.8 °C 2.5 °F /  -16.4 °C 1027.3 in /  34784.4 hPa WNW 22.2 mph /  35.7 km/h 22.2 mph /  35.7 km/h 72 % 0.0 in /  0 mm 334.0 W/m2 CLR
09:58 7.2 °F /  -13.8 °C 2.3 °F /  -16.5 °C 1027.3 in /  34784.4 hPa NW 22.2 mph /  35.7 km/h 22.2 mph /  35.7 km/h 71 % 0.0 in /  0 mm 346.0 W/m2 CLR
10:03 7.8 °F /  -13.4 °C 2.8 °F /  -16.2 °C 1027.0 in /  34774.2 hPa West 22.2 mph /  35.7 km/h 22.2 mph /  35.7 km/h 71 % 0.0 in /  0 mm 359.0 W/m2 CLR
10:08 7.8 °F /  -13.4 °C 2.8 °F /  -16.2 °C 1027.0 in /  34774.2 hPa NW 31.5 mph /  50.7 km/h 31.5 mph /  50.7 km/h 71 % 0.0 in /  0 mm 376.0 W/m2 CLR
10:14 7.8 °F /  -13.4 °C 2.8 °F /  -16.2 °C 1027.0 in /  34774.2 hPa NNW 29.6 mph /  47.6 km/h 29.6 mph /  47.6 km/h 71 % 0.0 in /  0 mm 371.0 W/m2 CLR
10:19 7.8 °F /  -13.4 °C 2.8 °F /  -16.2 °C 1027.0 in /  34774.2 hPa NW 29.6 mph /  47.6 km/h 29.6 mph /  47.6 km/h 71 % 0.0 in /  0 mm 387.0 W/m2 CLR
10:24 8.3 °F /  -13.2 °C 3.4 °F /  -15.9 °C 1027.3 in /  34784.4 hPa NW 27.8 mph /  44.7 km/h 27.8 mph /  44.7 km/h 71 % 0.0 in /  0 mm 415.0 W/m2 CLR
10:29 8.3 °F /  -13.2 °C 3.2 °F /  -16 °C 1027.0 in /  34774.2 hPa NNW 27.8 mph /  44.7 km/h 27.8 mph /  44.7 km/h 70 % 0.0 in /  0 mm 425.0 W/m2 CLR
10:34 8.3 °F /  -13.2 °C 3.2 °F /  -16 °C 1027.3 in /  34784.4 hPa NW 24.1 mph /  38.8 km/h 24.1 mph /  38.8 km/h 70 % 0.0 in /  0 mm 452.0 W/m2 CLR
10:39 8.3 °F /  -13.2 °C 3.0 °F /  -16.1 °C 1027.0 in /  34774.2 hPa NW 29.6 mph /  47.6 km/h 29.6 mph /  47.6 km/h 69 % 0.0 in /  0 mm 464.0 W/m2 CLR
10:44 8.3 °F /  -13.2 °C 3.0 °F /  -16.1 °C 1027.0 in /  34774.2 hPa NNW 27.8 mph /  44.7 km/h 27.8 mph /  44.7 km/h 69 % 0.0 in /  0 mm 397.0 W/m2 CLR
10:49 8.9 °F /  -12.8 °C 3.5 °F /  -15.8 °C 1027.0 in /  34774.2 hPa NNW 33.3 mph /  53.6 km/h 33.3 mph /  53.6 km/h 69 % 0.0 in /  0 mm 536.0 W/m2 CLR
10:54 8.9 °F /  -12.8 °C 3.3 °F /  -15.9 °C 1027.0 in /  34774.2 hPa WNW 18.5 mph /  29.8 km/h 18.5 mph /  29.8 km/h 68 % 0.0 in /  0 mm 568.0 W/m2 CLR
10:59 9.4 °F /  -12.6 °C 3.8 °F /  -15.7 °C 1027.0 in /  34774.2 hPa NW 24.1 mph /  38.8 km/h 24.1 mph /  38.8 km/h 68 % 0.0 in /  0 mm 545.0 W/m2 CLR
11:04 9.4 °F /  -12.6 °C 3.8 °F /  -15.7 °C 1027.0 in /  34774.2 hPa NNW 25.9 mph /  41.7 km/h 25.9 mph /  41.7 km/h 68 % 0.0 in /  0 mm 515.0 W/m2 CLR
11:09 9.4 °F /  -12.6 °C 3.8 °F /  -15.7 °C 1027.0 in /  34774.2 hPa NW 22.2 mph /  35.7 km/h 22.2 mph /  35.7 km/h 68 % 0.0 in /  0 mm 563.0 W/m2 CLR
11:14 9.4 °F /  -12.6 °C 3.6 °F /  -15.8 °C 1027.0 in /  34774.2 hPa WNW 25.9 mph /  41.7 km/h 25.9 mph /  41.7 km/h 67 % 0.0 in /  0 mm 162.0 W/m2 CLR
11:19 9.4 °F /  -12.6 °C 3.6 °F /  -15.8 °C 1027.0 in /  34774.2 hPa NW 27.8 mph /  44.7 km/h 27.8 mph /  44.7 km/h 67 % 0.0 in /  0 mm 162.0 W/m2 CLR
11:24 8.9 °F /  -12.8 °C 2.9 °F /  -16.2 °C 1026.6 in /  34760.7 hPa WNW 20.4 mph /  32.8 km/h 20.4 mph /  32.8 km/h 66 % 0.0 in /  0 mm 330.0 W/m2 CLR
11:29 8.9 °F /  -12.8 °C 3.1 °F /  -16.1 °C 1026.6 in /  34760.7 hPa NNW 24.1 mph /  38.8 km/h 24.1 mph /  38.8 km/h 67 % 0.0 in /  0 mm 392.0 W/m2 CLR
11:34 10.0 °F /  -12.2 °C 4.2 °F /  -15.4 °C 1026.6 in /  34760.7 hPa NNW 27.8 mph /  44.7 km/h 27.8 mph /  44.7 km/h 67 % 0.0 in /  0 mm 587.0 W/m2 CLR
11:39 10.0 °F /  -12.2 °C 3.7 °F /  -15.7 °C 1026.6 in /  34760.7 hPa NW 25.9 mph /  41.7 km/h 25.9 mph /  41.7 km/h 65 % 0.0 in /  0 mm 350.0 W/m2 CLR
11:44 10.0 °F /  -12.2 °C 3.7 °F /  -15.7 °C 1026.6 in /  34760.7 hPa NW 27.8 mph /  44.7 km/h 27.8 mph /  44.7 km/h 65 % 0.0 in /  0 mm 564.0 W/m2 CLR
11:49 10.6 °F /  -11.9 °C 4.2 °F /  -15.4 °C 1026.6 in /  34760.7 hPa NW 24.1 mph /  38.8 km/h 24.1 mph /  38.8 km/h 65 % 0.0 in /  0 mm 571.0 W/m2 CLR
11:54 10.6 °F /  -11.9 °C 3.8 °F /  -15.7 °C 1026.6 in /  34760.7 hPa NNW 25.9 mph /  41.7 km/h 25.9 mph /  41.7 km/h 63 % 0.0 in /  0 mm 575.0 W/m2 CLR
11:59 10.6 °F /  -11.9 °C 3.6 °F /  -15.8 °C 1026.6 in /  34760.7 hPa North 25.9 mph /  41.7 km/h 25.9 mph /  41.7 km/h 62 % 0.0 in /  0 mm 577.0 W/m2 CLR
12:04 11.1 °F /  -11.6 °C 4.1 °F /  -15.5 °C 1026.3 in /  34750.5 hPa NW 31.5 mph /  50.7 km/h 31.5 mph /  50.7 km/h 62 % 0.0 in /  0 mm 584.0 W/m2 CLR
12:09 11.1 °F /  -11.6 °C 3.9 °F /  -15.6 °C 1026.3 in /  34750.5 hPa NNW 31.5 mph /  50.7 km/h 31.5 mph /  50.7 km/h 61 % 0.0 in /  0 mm 589.0 W/m2 CLR
12:14 11.7 °F /  -11.3 °C 4.4 °F /  -15.3 °C 1026.3 in /  34750.5 hPa NNW 25.7 mph /  41.4 km/h 25.7 mph /  41.4 km/h 61 % 0.0 in /  0 mm 596.0 W/m2 CLR
12:19 11.7 °F /  -11.3 °C 4.2 °F /  -15.4 °C 1026.3 in /  34750.5 hPa NNW 24.1 mph /  38.8 km/h 24.1 mph /  38.8 km/h 60 % 0.0 in /  0 mm 599.0 W/m2 CLR
12:24 11.1 °F /  -11.6 °C 3.9 °F /  -15.6 °C 1026.3 in /  34750.5 hPa NW 24.1 mph /  38.8 km/h 24.1 mph /  38.8 km/h 61 % 0.0 in /  0 mm 612.0 W/m2 CLR
12:29 11.7 °F /  -11.3 °C 4.4 °F /  -15.3 °C 1026.3 in /  34750.5 hPa NNW 29.6 mph /  47.6 km/h 29.6 mph /  47.6 km/h 61 % 0.0 in /  0 mm 592.0 W/m2 CLR
12:34 11.7 °F /  -11.3 °C 4.4 °F /  -15.3 °C 1026.0 in /  34740.4 hPa NNW 31.5 mph /  50.7 km/h 31.5 mph /  50.7 km/h 61 % 0.0 in /  0 mm 578.0 W/m2 CLR
12:39 12.2 °F /  -11 °C 4.4 °F /  -15.3 °C 1026.0 in /  34740.4 hPa NNW 33.3 mph /  53.6 km/h 33.3 mph /  53.6 km/h 59 % 0.0 in /  0 mm 617.0 W/m2 CLR
12:44 11.7 °F /  -11.3 °C 3.9 °F /  -15.6 °C 1026.0 in /  34740.4 hPa NNW 22.2 mph /  35.7 km/h 22.2 mph /  35.7 km/h 59 % 0.0 in /  0 mm 622.0 W/m2 CLR
12:49 12.2 °F /  -11 °C 3.9 °F /  -15.6 °C 1026.0 in /  34740.4 hPa WNW 33.3 mph /  53.6 km/h 33.3 mph /  53.6 km/h 57 % 0.0 in /  0 mm 624.0 W/m2 CLR
12:54 11.7 °F /  -11.3 °C 4.2 °F /  -15.4 °C 1026.0 in /  34740.4 hPa NW 20.9 mph /  33.6 km/h 20.9 mph /  33.6 km/h 60 % 0.0 in /  0 mm 626.0 W/m2 CLR
12:59 12.8 °F /  -10.7 °C 4.7 °F /  -15.2 °C 1025.6 in /  34726.8 hPa NW 31.5 mph /  50.7 km/h 31.5 mph /  50.7 km/h 58 % 0.0 in /  0 mm 629.0 W/m2 CLR
13:04 12.2 °F /  -11 °C 3.7 °F /  -15.7 °C 1025.6 in /  34726.8 hPa NW 33.3 mph /  53.6 km/h 33.3 mph /  53.6 km/h 56 % 0.0 in /  0 mm 629.0 W/m2 CLR
13:09 12.2 °F /  -11 °C 3.7 °F /  -15.7 °C 1025.6 in /  34726.8 hPa NW 42.6 mph /  68.6 km/h 42.6 mph /  68.6 km/h 56 % 0.0 in /  0 mm 631.0 W/m2 CLR
13:14 12.8 °F /  -10.7 °C 4.2 °F /  -15.4 °C 1025.3 in /  34716.7 hPa WNW 20.4 mph /  32.8 km/h 20.4 mph /  32.8 km/h 56 % 0.0 in /  0 mm 635.0 W/m2 CLR
13:19 12.8 °F /  -10.7 °C 4.7 °F /  -15.2 °C 1025.3 in /  34716.7 hPa NNW 29.6 mph /  47.6 km/h 29.6 mph /  47.6 km/h 58 % 0.0 in /  0 mm 636.0 W/m2 CLR
13:24 12.8 °F /  -10.7 °C 4.2 °F /  -15.4 °C 1025.3 in /  34716.7 hPa NNW 42.6 mph /  68.6 km/h 42.6 mph /  68.6 km/h 56 % 0.0 in /  0 mm 657.0 W/m2 CLR
13:29 12.8 °F /  -10.7 °C 4.4 °F /  -15.3 °C 1025.3 in /  34716.7 hPa NNW 24.1 mph /  38.8 km/h 24.1 mph /  38.8 km/h 57 % 0.0 in /  0 mm 619.0 W/m2 CLR
13:34 12.8 °F /  -10.7 °C 3.7 °F /  -15.7 °C 1024.9 in /  34703.1 hPa ESE 31.5 mph /  50.7 km/h 31.5 mph /  50.7 km/h 54 % 0.0 in /  0 mm 584.0 W/m2 CLR
13:39 12.8 °F /  -10.7 °C 3.9 °F /  -15.6 °C 1025.3 in /  34716.7 hPa NNW 20.9 mph /  33.6 km/h 20.9 mph /  33.6 km/h 55 % 0.0 in /  0 mm 638.0 W/m2 CLR
13:44 12.8 °F /  -10.7 °C 3.7 °F /  -15.7 °C 1024.9 in /  34703.1 hPa NNW 31.5 mph /  50.7 km/h 31.5 mph /  50.7 km/h 54 % 0.0 in /  0 mm 640.0 W/m2 CLR
13:49 12.8 °F /  -10.7 °C 3.9 °F /  -15.6 °C 1024.9 in /  34703.1 hPa North 18.5 mph /  29.8 km/h 18.5 mph /  29.8 km/h 55 % 0.0 in /  0 mm 631.0 W/m2 CLR
13:54 13.3 °F /  -10.4 °C 4.2 °F /  -15.4 °C 1024.9 in /  34703.1 hPa NNW 33.3 mph /  53.6 km/h 33.3 mph /  53.6 km/h 54 % 0.0 in /  0 mm 622.0 W/m2 CLR
13:59 12.8 °F /  -10.7 °C 3.7 °F /  -15.7 °C 1024.9 in /  34703.1 hPa North 22.5 mph /  36.2 km/h 22.5 mph /  36.2 km/h 54 % 0.0 in /  0 mm 608.0 W/m2 CLR
14:04 12.8 °F /  -10.7 °C 3.7 °F /  -15.7 °C 1024.6 in /  34693 hPa North 25.9 mph /  41.7 km/h 25.9 mph /  41.7 km/h 54 % 0.0 in /  0 mm 629.0 W/m2 CLR
14:09 13.3 °F /  -10.4 °C 4.2 °F /  -15.4 °C 1024.6 in /  34693 hPa NW 31.5 mph /  50.7 km/h 31.5 mph /  50.7 km/h 54 % 0.0 in /  0 mm 580.0 W/m2 CLR
14:14 13.3 °F /  -10.4 °C 4.2 °F /  -15.4 °C 1024.6 in /  34693 hPa NW 27.8 mph /  44.7 km/h 27.8 mph /  44.7 km/h 54 % 0.0 in /  0 mm 564.0 W/m2 CLR
14:19 13.3 °F /  -10.4 °C 3.9 °F /  -15.6 °C 1024.3 in /  34682.8 hPa NW 24.1 mph /  38.8 km/h 24.1 mph /  38.8 km/h 53 % 0.0 in /  0 mm 613.0 W/m2 CLR
14:24 13.3 °F /  -10.4 °C 3.9 °F /  -15.6 °C 1024.3 in /  34682.8 hPa NW 31.5 mph /  50.7 km/h 31.5 mph /  50.7 km/h 53 % 0.0 in /  0 mm 438.0 W/m2 CLR
14:29 13.3 °F /  -10.4 °C 4.2 °F /  -15.4 °C 1024.3 in /  34682.8 hPa North 29.6 mph /  47.6 km/h 29.6 mph /  47.6 km/h 54 % 0.0 in /  0 mm 570.0 W/m2 CLR
14:34 13.3 °F /  -10.4 °C 4.2 °F /  -15.4 °C 1024.3 in /  34682.8 hPa NNW 31.5 mph /  50.7 km/h 31.5 mph /  50.7 km/h 54 % 0.0 in /  0 mm 570.0 W/m2 CLR
14:39 13.9 °F /  -10.1 °C 4.7 °F /  -15.2 °C 1024.3 in /  34682.8 hPa NW 22.2 mph /  35.7 km/h 22.2 mph /  35.7 km/h 54 % 0.0 in /  0 mm 554.0 W/m2 CLR
14:44 13.3 °F /  -10.4 °C 3.9 °F /  -15.6 °C 1024.3 in /  34682.8 hPa WNW 25.9 mph /  41.7 km/h 25.9 mph /  41.7 km/h 53 % 0.0 in /  0 mm 519.0 W/m2 CLR
14:49 13.3 °F /  -10.4 °C 4.2 °F /  -15.4 °C 1024.3 in /  34682.8 hPa WNW 25.9 mph /  41.7 km/h 25.9 mph /  41.7 km/h 54 % 0.0 in /  0 mm 573.0 W/m2 CLR
14:54 13.3 °F /  -10.4 °C 4.2 °F /  -15.4 °C 1024.3 in /  34682.8 hPa NNW 29.6 mph /  47.6 km/h 29.6 mph /  47.6 km/h 54 % 0.0 in /  0 mm 570.0 W/m2 CLR
14:59 13.9 °F /  -10.1 °C 4.4 °F /  -15.3 °C 1024.3 in /  34682.8 hPa NW 29.6 mph /  47.6 km/h 29.6 mph /  47.6 km/h 53 % 0.0 in /  0 mm 577.0 W/m2 CLR
15:04 13.9 °F /  -10.1 °C 4.2 °F /  -15.4 °C 1023.9 in /  34669.3 hPa North 25.9 mph /  41.7 km/h 25.9 mph /  41.7 km/h 52 % 0.0 in /  0 mm 547.0 W/m2 CLR
15:09 13.9 °F /  -10.1 °C 4.2 °F /  -15.4 °C 1023.9 in /  34669.3 hPa NW 18.5 mph /  29.8 km/h 18.5 mph /  29.8 km/h 52 % 0.0 in /  0 mm 536.0 W/m2 CLR
15:14 13.9 °F /  -10.1 °C 4.2 °F /  -15.4 °C 1023.9 in /  34669.3 hPa NNW 27.8 mph /  44.7 km/h 27.8 mph /  44.7 km/h 52 % 0.0 in /  0 mm 563.0 W/m2 CLR
15:19 13.9 °F /  -10.1 °C 4.2 °F /  -15.4 °C 1023.9 in /  34669.3 hPa NNW 24.1 mph /  38.8 km/h 24.1 mph /  38.8 km/h 52 % 0.0 in /  0 mm 587.0 W/m2 CLR
15:24 13.9 °F /  -10.1 °C 4.4 °F /  -15.3 °C 1023.9 in /  34669.3 hPa NW 14.8 mph /  23.8 km/h 14.8 mph /  23.8 km/h 53 % 0.0 in /  0 mm 415.0 W/m2 CLR
15:29 13.3 °F /  -10.4 °C 3.7 °F /  -15.7 °C 1023.6 in /  34659.1 hPa NW 24.1 mph /  38.8 km/h 24.1 mph /  38.8 km/h 52 % 0.0 in /  0 mm 355.0 W/m2 CLR
15:34 13.3 °F /  -10.4 °C 3.7 °F /  -15.7 °C 1023.6 in /  34659.1 hPa WNW 20.4 mph /  32.8 km/h 20.4 mph /  32.8 km/h 52 % 0.0 in /  0 mm 432.0 W/m2 CLR
15:39 13.3 °F /  -10.4 °C 3.7 °F /  -15.7 °C 1023.6 in /  34659.1 hPa North 18.5 mph /  29.8 km/h 18.5 mph /  29.8 km/h 52 % 0.0 in /  0 mm 288.0 W/m2 CLR
15:44 13.3 °F /  -10.4 °C 3.9 °F /  -15.6 °C 1023.6 in /  34659.1 hPa NNW 20.9 mph /  33.6 km/h 20.9 mph /  33.6 km/h 53 % 0.0 in /  0 mm 294.0 W/m2 CLR
15:49 13.3 °F /  -10.4 °C 3.9 °F /  -15.6 °C 1023.6 in /  34659.1 hPa NNW 27.8 mph /  44.7 km/h 27.8 mph /  44.7 km/h 53 % 0.0 in /  0 mm 388.0 W/m2 CLR
16:00 13.3 °F /  -10.4 °C 3.7 °F /  -15.7 °C 1023.6 in /  34659.1 hPa NW 22.2 mph /  35.7 km/h 22.2 mph /  35.7 km/h 52 % 0.0 in /  0 mm 216.0 W/m2 CLR
16:05 13.3 °F /  -10.4 °C 3.9 °F /  -15.6 °C 1023.6 in /  34659.1 hPa NW 27.8 mph /  44.7 km/h 27.8 mph /  44.7 km/h 53 % 0.0 in /  0 mm 214.0 W/m2 CLR
16:10 12.8 °F /  -10.7 °C 3.2 °F /  -16 °C 1023.6 in /  34659.1 hPa NW 29.6 mph /  47.6 km/h 29.6 mph /  47.6 km/h 52 % 0.0 in /  0 mm 174.0 W/m2 CLR
16:15 12.8 °F /  -10.7 °C 3.2 °F /  -16 °C 1023.6 in /  34659.1 hPa NW 27.8 mph /  44.7 km/h 27.8 mph /  44.7 km/h 52 % 0.0 in /  0 mm 165.0 W/m2 CLR
16:20 12.2 °F /  -11 °C 2.9 °F /  -16.2 °C 1023.6 in /  34659.1 hPa NW 17.7 mph /  28.5 km/h 17.7 mph /  28.5 km/h 53 % 0.0 in /  0 mm 158.0 W/m2 CLR
16:25 12.2 °F /  -11 °C 2.9 °F /  -16.2 °C 1023.6 in /  34659.1 hPa NW 22.2 mph /  35.7 km/h 22.2 mph /  35.7 km/h 53 % 0.0 in /  0 mm 195.0 W/m2 CLR
16:30 12.2 °F /  -11 °C 3.2 °F /  -16 °C 1023.6 in /  34659.1 hPa NW 22.2 mph /  35.7 km/h 22.2 mph /  35.7 km/h 54 % 0.0 in /  0 mm 179.0 W/m2 CLR
16:35 12.2 °F /  -11 °C 2.9 °F /  -16.2 °C 1023.6 in /  34659.1 hPa WNW 20.4 mph /  32.8 km/h 20.4 mph /  32.8 km/h 53 % 0.0 in /  0 mm 271.0 W/m2 CLR
16:40 12.2 °F /  -11 °C 2.9 °F /  -16.2 °C 1023.6 in /  34659.1 hPa NW 24.1 mph /  38.8 km/h 24.1 mph /  38.8 km/h 53 % 0.0 in /  0 mm 239.0 W/m2 CLR
16:45 12.2 °F /  -11 °C 2.9 °F /  -16.2 °C 1023.6 in /  34659.1 hPa NNW 24.1 mph /  38.8 km/h 24.1 mph /  38.8 km/h 53 % 0.0 in /  0 mm 149.0 W/m2 CLR
16:50 12.2 °F /  -11 °C 3.2 °F /  -16 °C 1023.6 in /  34659.1 hPa NW 18.5 mph /  29.8 km/h 18.5 mph /  29.8 km/h 54 % 0.0 in /  0 mm 155.0 W/m2 CLR
16:55 12.2 °F /  -11 °C 3.4 °F /  -15.9 °C 1023.2 in /  34645.6 hPa NW 16.7 mph /  26.9 km/h 16.7 mph /  26.9 km/h 55 % 0.0 in /  0 mm 255.0 W/m2 CLR
17:00 12.8 °F /  -10.7 °C 3.9 °F /  -15.6 °C 1023.2 in /  34645.6 hPa NW 16.7 mph /  26.9 km/h 16.7 mph /  26.9 km/h 55 % 0.0 in /  0 mm 225.0 W/m2 CLR
17:05 12.8 °F /  -10.7 °C 3.7 °F /  -15.7 °C 1023.2 in /  34645.6 hPa NNW 22.5 mph /  36.2 km/h 22.5 mph /  36.2 km/h 54 % 0.0 in /  0 mm 135.0 W/m2 CLR
17:10 12.8 °F /  -10.7 °C 3.9 °F /  -15.6 °C 1023.6 in /  34659.1 hPa NW 27.8 mph /  44.7 km/h 27.8 mph /  44.7 km/h 55 % 0.0 in /  0 mm 111.0 W/m2 CLR
17:15 12.2 °F /  -11 °C 3.9 °F /  -15.6 °C 1023.6 in /  34659.1 hPa NNW 18.5 mph /  29.8 km/h 18.5 mph /  29.8 km/h 57 % 0.0 in /  0 mm 114.0 W/m2 CLR
17:20 11.7 °F /  -11.3 °C 3.7 °F /  -15.7 °C 1023.6 in /  34659.1 hPa NW 25.9 mph /  41.7 km/h 25.9 mph /  41.7 km/h 58 % 0.0 in /  0 mm 163.0 W/m2 CLR
17:25 11.7 °F /  -11.3 °C 3.7 °F /  -15.7 °C 1023.2 in /  34645.6 hPa NNW 24.1 mph /  38.8 km/h 24.1 mph /  38.8 km/h 58 % 0.0 in /  0 mm 114.0 W/m2 CLR
17:30 11.7 °F /  -11.3 °C 3.7 °F /  -15.7 °C 1023.2 in /  34645.6 hPa NW 24.1 mph /  38.8 km/h 24.1 mph /  38.8 km/h 58 % 0.0 in /  0 mm 86.0 W/m2 CLR
17:35 11.7 °F /  -11.3 °C 3.9 °F /  -15.6 °C 1023.2 in /  34645.6 hPa NNW 20.9 mph /  33.6 km/h 20.9 mph /  33.6 km/h 59 % 0.0 in /  0 mm 76.0 W/m2 CLR
17:40 11.7 °F /  -11.3 °C 4.2 °F /  -15.4 °C 1023.2 in /  34645.6 hPa NW 24.1 mph /  38.8 km/h 24.1 mph /  38.8 km/h 60 % 0.0 in /  0 mm 69.0 W/m2 FEW
17:45 11.1 °F /  -11.6 °C 3.9 °F /  -15.6 °C 1023.2 in /  34645.6 hPa NW 18.5 mph /  29.8 km/h 18.5 mph /  29.8 km/h 61 % 0.0 in /  0 mm 72.0 W/m2 FEW
17:50 11.1 °F /  -11.6 °C 4.1 °F /  -15.5 °C 1023.2 in /  34645.6 hPa NW 18.5 mph /  29.8 km/h 18.5 mph /  29.8 km/h 62 % 0.0 in /  0 mm 63.0 W/m2 SCT
17:55 11.1 °F /  -11.6 °C 4.1 °F /  -15.5 °C 1023.2 in /  34645.6 hPa NW 16.7 mph /  26.9 km/h 16.7 mph /  26.9 km/h 62 % 0.0 in /  0 mm 51.0 W/m2 SCT
18:00 11.1 °F /  -11.6 °C 4.3 °F /  -15.4 °C 1023.2 in /  34645.6 hPa NW 13.0 mph /  20.9 km/h 13.0 mph /  20.9 km/h 63 % 0.0 in /  0 mm 39.0 W/m2 BKN
18:05 11.1 °F /  -11.6 °C 4.6 °F /  -15.2 °C 1023.2 in /  34645.6 hPa NW 9.3 mph /  15 km/h 9.3 mph /  15 km/h 64 % 0.0 in /  0 mm 28.0 W/m2 BKN
18:10 11.1 °F /  -11.6 °C 4.6 °F /  -15.2 °C 1023.2 in /  34645.6 hPa NW 11.1 mph /  17.9 km/h 11.1 mph /  17.9 km/h 64 % 0.0 in /  0 mm 23.0 W/m2 BKN
18:15 11.1 °F /  -11.6 °C 4.6 °F /  -15.2 °C 1023.2 in /  34645.6 hPa NW 14.8 mph /  23.8 km/h 14.8 mph /  23.8 km/h 64 % 0.0 in /  0 mm 19.0 W/m2 BKN
18:20 11.1 °F /  -11.6 °C 4.6 °F /  -15.2 °C 1023.2 in /  34645.6 hPa WNW 16.7 mph /  26.9 km/h 16.7 mph /  26.9 km/h 64 % 0.0 in /  0 mm 14.0 W/m2 BKN
18:25 11.1 °F /  -11.6 °C 4.8 °F /  -15.1 °C 1023.2 in /  34645.6 hPa NNW 16.1 mph /  25.9 km/h 16.1 mph /  25.9 km/h 65 % 0.0 in /  0 mm 11.0 W/m2 BKN
18:30 11.1 °F /  -11.6 °C 4.8 °F /  -15.1 °C 1023.2 in /  34645.6 hPa NW 13.0 mph /  20.9 km/h 13.0 mph /  20.9 km/h 65 % 0.0 in /  0 mm 5.0 W/m2 OVC
18:35 11.1 °F /  -11.6 °C 5.0 °F /  -15 °C 1023.6 in /  34659.1 hPa NNW 25.9 mph /  41.7 km/h 25.9 mph /  41.7 km/h 66 % 0.0 in /  0 mm 0.0 W/m2 OVC
18:40 11.1 °F /  -11.6 °C 5.0 °F /  -15 °C 1023.6 in /  34659.1 hPa NNW 25.9 mph /  41.7 km/h 25.9 mph /  41.7 km/h 66 % 0.0 in /  0 mm 0.0 W/m2 OVC
18:45 11.1 °F /  -11.6 °C 5.2 °F /  -14.9 °C 1023.6 in /  34659.1 hPa NNW 27.8 mph /  44.7 km/h 27.8 mph /  44.7 km/h 67 % 0.0 in /  0 mm 0.0 W/m2 OVC
18:50 11.1 °F /  -11.6 °C 5.4 °F /  -14.8 °C 1023.6 in /  34659.1 hPa NW 22.2 mph /  35.7 km/h 22.2 mph /  35.7 km/h 68 % 0.0 in /  0 mm 0.0 W/m2 CLR
18:55 11.1 °F /  -11.6 °C 5.4 °F /  -14.8 °C 1023.6 in /  34659.1 hPa NW 25.9 mph /  41.7 km/h 25.9 mph /  41.7 km/h 68 % 0.0 in /  0 mm 0.0 W/m2 CLR
19:00 10.6 °F /  -11.9 °C 4.9 °F /  -15.1 °C 1023.6 in /  34659.1 hPa NNW 27.8 mph /  44.7 km/h 27.8 mph /  44.7 km/h 68 % 0.0 in /  0 mm 0.0 W/m2 CLR
19:05 10.6 °F /  -11.9 °C 5.1 °F /  -14.9 °C 1023.6 in /  34659.1 hPa WNW 14.8 mph /  23.8 km/h 14.8 mph /  23.8 km/h 69 % 0.0 in /  0 mm 0.0 W/m2 CLR
19:10 10.6 °F /  -11.9 °C 5.1 °F /  -14.9 °C 1023.6 in /  34659.1 hPa NW 20.4 mph /  32.8 km/h 20.4 mph /  32.8 km/h 69 % 0.0 in /  0 mm 0.0 W/m2 CLR
19:15 10.6 °F /  -11.9 °C 5.3 °F /  -14.8 °C 1023.6 in /  34659.1 hPa NW 16.1 mph /  25.9 km/h 16.1 mph /  25.9 km/h 70 % 0.0 in /  0 mm 0.0 W/m2 CLR
19:20 10.6 °F /  -11.9 °C 5.3 °F /  -14.8 °C 1023.6 in /  34659.1 hPa WNW 16.7 mph /  26.9 km/h 16.7 mph /  26.9 km/h 70 % 0.0 in /  0 mm 0.0 W/m2 CLR
19:25 10.6 °F /  -11.9 °C 5.3 °F /  -14.8 °C 1023.6 in /  34659.1 hPa WNW 17.7 mph /  28.5 km/h 17.7 mph /  28.5 km/h 70 % 0.0 in /  0 mm 0.0 W/m2 CLR
19:30 10.6 °F /  -11.9 °C 5.3 °F /  -14.8 °C 1023.6 in /  34659.1 hPa NW 18.5 mph /  29.8 km/h 18.5 mph /  29.8 km/h 70 % 0.0 in /  0 mm 0.0 W/m2 CLR
19:35 10.6 °F /  -11.9 °C 5.3 °F /  -14.8 °C 1023.6 in /  34659.1 hPa WNW 18.5 mph /  29.8 km/h 18.5 mph /  29.8 km/h 70 % 0.0 in /  0 mm 0.0 W/m2 CLR
19:40 10.6 °F /  -11.9 °C 5.3 °F /  -14.8 °C 1023.6 in /  34659.1 hPa WNW 16.7 mph /  26.9 km/h 16.7 mph /  26.9 km/h 70 % 0.0 in /  0 mm 0.0 W/m2 CLR
19:45 10.6 °F /  -11.9 °C 5.3 °F /  -14.8 °C 1023.6 in /  34659.1 hPa WNW 16.7 mph /  26.9 km/h 16.7 mph /  26.9 km/h 70 % 0.0 in /  0 mm 0.0 W/m2 CLR
19:50 10.6 °F /  -11.9 °C 5.3 °F /  -14.8 °C 1023.6 in /  34659.1 hPa WNW 16.7 mph /  26.9 km/h 16.7 mph /  26.9 km/h 70 % 0.0 in /  0 mm 0.0 W/m2 CLR
19:55 10.6 °F /  -11.9 °C 5.3 °F /  -14.8 °C 1023.6 in /  34659.1 hPa WNW 18.5 mph /  29.8 km/h 18.5 mph /  29.8 km/h 70 % 0.0 in /  0 mm 0.0 W/m2 CLR
20:00 10.6 °F /  -11.9 °C 5.3 °F /  -14.8 °C 1023.6 in /  34659.1 hPa WNW 20.4 mph /  32.8 km/h 20.4 mph /  32.8 km/h 70 % 0.0 in /  0 mm 0.0 W/m2 CLR
20:05 10.6 °F /  -11.9 °C 5.5 °F /  -14.7 °C 1023.6 in /  34659.1 hPa NW 22.2 mph /  35.7 km/h 22.2 mph /  35.7 km/h 71 % 0.0 in /  0 mm 0.0 W/m2 CLR
20:10 10.0 °F /  -12.2 °C 5.0 °F /  -15 °C 1023.6 in /  34659.1 hPa NW 18.5 mph /  29.8 km/h 18.5 mph /  29.8 km/h 71 % 0.0 in /  0 mm 0.0 W/m2 CLR
20:15 10.6 °F /  -11.9 °C 5.5 °F /  -14.7 °C 1023.6 in /  34659.1 hPa WNW 18.5 mph /  29.8 km/h 18.5 mph /  29.8 km/h 71 % 0.0 in /  0 mm 0.0 W/m2 CLR
20:20 10.6 °F /  -11.9 °C 5.5 °F /  -14.7 °C 1023.6 in /  34659.1 hPa WNW 16.7 mph /  26.9 km/h 16.7 mph /  26.9 km/h 71 % 0.0 in /  0 mm 0.0 W/m2 CLR
20:25 10.6 °F /  -11.9 °C 5.5 °F /  -14.7 °C 1023.6 in /  34659.1 hPa West 14.8 mph /  23.8 km/h 14.8 mph /  23.8 km/h 71 % 0.0 in /  0 mm 0.0 W/m2 CLR
20:30 10.6 °F /  -11.9 °C 5.5 °F /  -14.7 °C 1023.6 in /  34659.1 hPa WNW 16.7 mph /  26.9 km/h 16.7 mph /  26.9 km/h 71 % 0.0 in /  0 mm 0.0 W/m2 CLR
20:35 10.6 °F /  -11.9 °C 5.7 °F /  -14.6 °C 1023.6 in /  34659.1 hPa NW 18.5 mph /  29.8 km/h 18.5 mph /  29.8 km/h 72 % 0.0 in /  0 mm 0.0 W/m2 CLR
20:40 10.6 °F /  -11.9 °C 5.7 °F /  -14.6 °C 1023.6 in /  34659.1 hPa WNW 16.7 mph /  26.9 km/h 16.7 mph /  26.9 km/h 72 % 0.0 in /  0 mm 0.0 W/m2 CLR
20:45 10.6 °F /  -11.9 °C 5.7 °F /  -14.6 °C 1023.6 in /  34659.1 hPa NW 18.5 mph /  29.8 km/h 18.5 mph /  29.8 km/h 72 % 0.0 in /  0 mm 0.0 W/m2 CLR
20:50 10.0 °F /  -12.2 °C 5.2 °F /  -14.9 °C 1023.6 in /  34659.1 hPa NW 18.5 mph /  29.8 km/h 18.5 mph /  29.8 km/h 72 % 0.0 in /  0 mm 0.0 W/m2 CLR
20:55 10.0 °F /  -12.2 °C 5.2 °F /  -14.9 °C 1023.6 in /  34659.1 hPa West 1.6 mph /  2.6 km/h   72 % 0.0 in /  0 mm 0.0 W/m2 CLR
21:00 10.0 °F /  -12.2 °C 5.4 °F /  -14.8 °C 1023.6 in /  34659.1 hPa West 16.7 mph /  26.9 km/h 16.7 mph /  26.9 km/h 73 % 0.0 in /  0 mm 0.0 W/m2 CLR
21:05 10.0 °F /  -12.2 °C 5.4 °F /  -14.8 °C 1023.6 in /  34659.1 hPa West 20.4 mph /  32.8 km/h 20.4 mph /  32.8 km/h 73 % 0.0 in /  0 mm 0.0 W/m2 CLR
21:10 10.0 °F /  -12.2 °C 5.4 °F /  -14.8 °C 1023.6 in /  34659.1 hPa WNW 9.7 mph /  15.6 km/h 9.7 mph /  15.6 km/h 73 % 0.0 in /  0 mm 0.0 W/m2 CLR
21:15 10.0 °F /  -12.2 °C 5.4 °F /  -14.8 °C 1023.6 in /  34659.1 hPa NW 14.5 mph /  23.3 km/h 14.5 mph /  23.3 km/h 73 % 0.0 in /  0 mm 0.0 W/m2 CLR
21:20 10.0 °F /  -12.2 °C 5.4 °F /  -14.8 °C 1023.6 in /  34659.1 hPa NW 18.5 mph /  29.8 km/h 18.5 mph /  29.8 km/h 73 % 0.0 in /  0 mm 0.0 W/m2 CLR
21:25 10.0 °F /  -12.2 °C 5.4 °F /  -14.8 °C 1023.6 in /  34659.1 hPa WNW 13.0 mph /  20.9 km/h 13.0 mph /  20.9 km/h 73 % 0.0 in /  0 mm 0.0 W/m2 CLR
21:30 10.0 °F /  -12.2 °C 5.6 °F /  -14.7 °C 1023.6 in /  34659.1 hPa WNW 14.8 mph /  23.8 km/h 14.8 mph /  23.8 km/h 74 % 0.0 in /  0 mm 0.0 W/m2 CLR
21:35 10.0 °F /  -12.2 °C 5.6 °F /  -14.7 °C 1023.2 in /  34645.6 hPa West 11.1 mph /  17.9 km/h 11.1 mph /  17.9 km/h 74 % 0.0 in /  0 mm 0.0 W/m2 CLR
21:40 10.0 °F /  -12.2 °C 5.6 °F /  -14.7 °C 1023.2 in /  34645.6 hPa NW 16.1 mph /  25.9 km/h 16.1 mph /  25.9 km/h 74 % 0.0 in /  0 mm 0.0 W/m2 CLR
21:45 10.0 °F /  -12.2 °C 5.6 °F /  -14.7 °C 1023.2 in /  34645.6 hPa NW 16.7 mph /  26.9 km/h 16.7 mph /  26.9 km/h 74 % 0.0 in /  0 mm 0.0 W/m2 CLR
21:50 10.0 °F /  -12.2 °C 5.8 °F /  -14.6 °C 1023.2 in /  34645.6 hPa NNW 24.1 mph /  38.8 km/h 24.1 mph /  38.8 km/h 75 % 0.0 in /  0 mm 0.0 W/m2 CLR
21:55 10.0 °F /  -12.2 °C 5.9 °F /  -14.5 °C 1023.2 in /  34645.6 hPa NW 25.7 mph /  41.4 km/h 25.7 mph /  41.4 km/h 76 % 0.0 in /  0 mm 0.0 W/m2 CLR
22:00 10.0 °F /  -12.2 °C 5.9 °F /  -14.5 °C 1023.2 in /  34645.6 hPa NNW 25.9 mph /  41.7 km/h 25.9 mph /  41.7 km/h 76 % 0.0 in /  0 mm 0.0 W/m2 CLR
22:05 10.0 °F /  -12.2 °C 5.9 °F /  -14.5 °C 1023.2 in /  34645.6 hPa NW 31.5 mph /  50.7 km/h 31.5 mph /  50.7 km/h 76 % 0.0 in /  0 mm 0.0 W/m2 CLR
22:10 9.4 °F /  -12.6 °C 5.6 °F /  -14.7 °C 1023.2 in /  34645.6 hPa NW 27.8 mph /  44.7 km/h 27.8 mph /  44.7 km/h 77 % 0.0 in /  0 mm 0.0 W/m2 CLR
22:15 9.4 °F /  -12.6 °C 5.8 °F /  -14.6 °C 1023.2 in /  34645.6 hPa NW 31.5 mph /  50.7 km/h 31.5 mph /  50.7 km/h 78 % 0.0 in /  0 mm 0.0 W/m2 CLR
22:20 9.4 °F /  -12.6 °C 5.8 °F /  -14.6 °C 1023.2 in /  34645.6 hPa NW 22.2 mph /  35.7 km/h 22.2 mph /  35.7 km/h 78 % 0.0 in /  0 mm 0.0 W/m2 CLR
22:26 9.4 °F /  -12.6 °C 5.8 °F /  -14.6 °C 1023.2 in /  34645.6 hPa NW 18.5 mph /  29.8 km/h 18.5 mph /  29.8 km/h 78 % 0.0 in /  0 mm 0.0 W/m2 CLR
22:31 9.4 °F /  -12.6 °C 5.6 °F /  -14.7 °C 1023.2 in /  34645.6 hPa NW 22.2 mph /  35.7 km/h 22.2 mph /  35.7 km/h 77 % 0.0 in /  0 mm 0.0 W/m2 CLR
22:36 9.4 °F /  -12.6 °C 5.6 °F /  -14.7 °C 1023.2 in /  34645.6 hPa NW 20.4 mph /  32.8 km/h 20.4 mph /  32.8 km/h 77 % 0.0 in /  0 mm 0.0 W/m2 CLR
22:41 9.4 °F /  -12.6 °C 5.6 °F /  -14.7 °C 1023.2 in /  34645.6 hPa NW 22.2 mph /  35.7 km/h 22.2 mph /  35.7 km/h 77 % 0.0 in /  0 mm 0.0 W/m2 CLR
22:46 9.4 °F /  -12.6 °C 5.4 °F /  -14.8 °C 1023.2 in /  34645.6 hPa NW 22.2 mph /  35.7 km/h 22.2 mph /  35.7 km/h 76 % 0.0 in /  0 mm 0.0 W/m2 CLR
22:51 9.4 °F /  -12.6 °C 5.4 °F /  -14.8 °C 1022.9 in /  34635.4 hPa NW 20.4 mph /  32.8 km/h 20.4 mph /  32.8 km/h 76 % 0.0 in /  0 mm 0.0 W/m2 CLR
22:56 9.4 °F /  -12.6 °C 5.6 °F /  -14.7 °C 1022.9 in /  34635.4 hPa NW 18.5 mph /  29.8 km/h 18.5 mph /  29.8 km/h 77 % 0.0 in /  0 mm 0.0 W/m2 CLR
23:01 9.4 °F /  -12.6 °C 5.6 °F /  -14.7 °C 1022.9 in /  34635.4 hPa NW 18.5 mph /  29.8 km/h 18.5 mph /  29.8 km/h 77 % 0.0 in /  0 mm 0.0 W/m2 CLR
23:06 9.4 °F /  -12.6 °C 5.6 °F /  -14.7 °C 1022.9 in /  34635.4 hPa NW 20.9 mph /  33.6 km/h 20.9 mph /  33.6 km/h 77 % 0.0 in /  0 mm 0.0 W/m2 CLR
23:11 9.4 °F /  -12.6 °C 5.6 °F /  -14.7 °C 1022.9 in /  34635.4 hPa NW 24.1 mph /  38.8 km/h 24.1 mph /  38.8 km/h 77 % 0.0 in /  0 mm 0.0 W/m2 CLR
23:16 9.4 °F /  -12.6 °C 5.6 °F /  -14.7 °C 1022.9 in /  34635.4 hPa NW 22.5 mph /  36.2 km/h 22.5 mph /  36.2 km/h 77 % 0.0 in /  0 mm 0.0 W/m2 CLR
23:21 9.4 °F /  -12.6 °C 5.6 °F /  -14.7 °C 1022.9 in /  34635.4 hPa WNW 18.5 mph /  29.8 km/h 18.5 mph /  29.8 km/h 77 % 0.0 in /  0 mm 0.0 W/m2 CLR
23:26 9.4 °F /  -12.6 °C 5.8 °F /  -14.6 °C 1022.9 in /  34635.4 hPa WNW 20.4 mph /  32.8 km/h 20.4 mph /  32.8 km/h 78 % 0.0 in /  0 mm 0.0 W/m2 CLR
23:31 9.4 °F /  -12.6 °C 5.6 °F /  -14.7 °C 1022.9 in /  34635.4 hPa NW 18.5 mph /  29.8 km/h 18.5 mph /  29.8 km/h 77 % 0.0 in /  0 mm 0.0 W/m2 CLR
23:36 9.4 °F /  -12.6 °C 5.6 °F /  -14.7 °C 1022.9 in /  34635.4 hPa NW 18.5 mph /  29.8 km/h 18.5 mph /  29.8 km/h 77 % 0.0 in /  0 mm 0.0 W/m2 CLR
23:41 8.9 °F /  -12.8 °C 5.1 °F /  -14.9 °C 1022.6 in /  34625.2 hPa WNW 17.7 mph /  28.5 km/h 17.7 mph /  28.5 km/h 77 % 0.0 in /  0 mm 0.0 W/m2 CLR
23:46 8.9 °F /  -12.8 °C 5.1 °F /  -14.9 °C 1022.6 in /  34625.2 hPa West 12.9 mph /  20.8 km/h 12.9 mph /  20.8 km/h 77 % 0.0 in /  0 mm 0.0 W/m2 CLR
23:51 8.9 °F /  -12.8 °C 5.1 °F /  -14.9 °C 1022.6 in /  34625.2 hPa WNW 18.5 mph /  29.8 km/h 18.5 mph /  29.8 km/h 77 % 0.0 in /  0 mm 0.0 W/m2 CLR
23:56 8.9 °F /  -12.8 °C 5.1 °F /  -14.9 °C 1022.9 in /  34635.4 hPa WNW 14.8 mph /  23.8 km/h 14.8 mph /  23.8 km/h 77 % 0.0 in /  0 mm 0.0 W/m2 CLR
Lo Temps de Massalio
Compliments of Weather Underground - 1.25 mb